createdAt,value
2022-08-17T00:00:42.926Z,22.58
2022-08-17T00:03:10.703Z,24.10
2022-08-17T00:05:42.043Z,20.83
2022-08-17T00:08:10.632Z,21.50
2022-08-17T00:10:39.321Z,22.13
2022-08-17T00:13:10.061Z,20.88
2022-08-17T00:15:38.514Z,19.70
2022-08-17T00:19:06.041Z,22.20
2022-08-17T00:20:55.543Z,22.55
2022-08-17T00:23:24.486Z,22.13
2022-08-17T00:25:53.254Z,22.23
2022-08-17T00:28:23.158Z,23.73
2022-08-17T00:30:53.547Z,25.45
2022-08-17T00:33:24.697Z,23.88
2022-08-17T00:35:53.744Z,22.65
2022-08-17T00:38:22.287Z,23.00
2022-08-17T00:40:52.147Z,22.75
2022-08-17T00:43:28.552Z,20.30
2022-08-17T00:45:57.101Z,23.00
2022-08-17T00:48:30.140Z,24.10
2022-08-17T00:51:01.840Z,21.90
2022-08-17T00:53:31.967Z,23.40
2022-08-17T00:56:01.899Z,22.58
2022-08-17T00:58:36.131Z,24.17
2022-08-17T01:01:05.562Z,22.33
2022-08-17T01:03:34.707Z,22.52
2022-08-17T01:06:04.600Z,24.02
2022-08-17T01:08:33.647Z,20.38
2022-08-17T01:11:02.838Z,23.25
2022-08-17T01:13:40.777Z,22.15
2022-08-17T01:16:13.496Z,22.38
2022-08-17T01:18:42.263Z,22.15
2022-08-17T01:21:12.885Z,22.17
2022-08-17T01:23:43.287Z,21.05
2022-08-17T01:26:11.737Z,23.08
2022-08-17T01:28:53.811Z,27.45
2022-08-17T01:31:24.540Z,20.40
2022-08-17T01:33:52.981Z,23.65
2022-08-17T01:36:21.482Z,21.83
2022-08-17T01:38:51.414Z,21.27
2022-08-17T01:41:21.080Z,19.25
2022-08-17T01:43:50.952Z,22.85
2022-08-17T01:46:23.257Z,24.10
2022-08-17T01:48:51.742Z,23.65
2022-08-17T01:51:20.573Z,23.00
2022-08-17T01:53:52.471Z,25.85
2022-08-17T01:56:21.758Z,24.77
2022-08-17T01:58:50.211Z,22.80
2022-08-17T02:01:19.557Z,31.67
2022-08-17T02:03:53.508Z,30.45
2022-08-17T02:06:29.895Z,28.30
2022-08-17T02:09:02.270Z,30.65
2022-08-17T02:11:32.232Z,30.30
2022-08-17T02:14:02.378Z,30.75
2022-08-17T02:16:37.931Z,28.10
2022-08-17T02:19:07.408Z,26.25
2022-08-17T02:21:36.254Z,24.88
2022-08-17T02:24:06.781Z,28.35
2022-08-17T02:26:35.223Z,29.55
2022-08-17T02:29:04.153Z,28.98
2022-08-17T02:31:32.911Z,24.83
2022-08-17T02:34:04.486Z,30.67
2022-08-17T02:36:33.775Z,27.60
2022-08-17T02:39:02.403Z,28.40
2022-08-17T02:41:32.232Z,27.50
2022-08-17T02:44:00.745Z,26.15
2022-08-17T02:46:30.558Z,29.17
2022-08-17T02:48:59.172Z,22.05
2022-08-17T02:51:28.148Z,25.52
2022-08-17T02:54:35.641Z,21.80
2022-08-17T02:56:46.399Z,30.70
2022-08-17T02:59:14.838Z,24.10
2022-08-17T03:01:43.490Z,23.25
2022-08-17T03:04:11.987Z,24.95
2022-08-17T03:06:40.424Z,22.70
2022-08-17T03:09:08.948Z,21.50
2022-08-17T03:11:37.384Z,27.58
2022-08-17T03:14:07.261Z,22.42
2022-08-17T03:16:35.970Z,21.63
2022-08-17T03:19:04.802Z,23.67
2022-08-17T03:21:33.293Z,25.90
2022-08-17T03:24:01.724Z,25.92
2022-08-17T03:26:37.318Z,23.65
2022-08-17T03:29:07.136Z,23.60
2022-08-17T03:31:37.048Z,24.08
2022-08-17T03:34:06.015Z,27.60
2022-08-17T03:36:36.139Z,26.65
2022-08-17T03:39:04.798Z,26.58
2022-08-17T03:41:33.293Z,29.67
2022-08-17T03:44:01.801Z,26.63
2022-08-17T03:46:49.176Z,28.35
2022-08-17T03:49:35.438Z,28.20
2022-08-17T03:52:21.595Z,28.08
2022-08-17T03:55:07.898Z,27.13
2022-08-17T03:57:36.904Z,28.45
2022-08-17T04:00:06.164Z,30.42
2022-08-17T04:02:36.564Z,34.15
2022-08-17T04:05:05.257Z,30.83
2022-08-17T04:07:33.919Z,26.42
2022-08-17T04:10:02.441Z,28.67
2022-08-17T04:12:31.414Z,27.95
2022-08-17T04:15:00.225Z,30.75
2022-08-17T04:17:29.580Z,27.25
2022-08-17T04:19:59.822Z,29.95
2022-08-17T04:22:32.024Z,31.55
2022-08-17T04:25:06.692Z,29.23
2022-08-17T04:27:35.151Z,26.05
2022-08-17T04:30:03.829Z,30.70
2022-08-17T04:33:02.905Z,34.75
2022-08-17T04:35:24.935Z,29.05
2022-08-17T04:37:53.471Z,30.65
2022-08-17T04:40:40.392Z,35.35
2022-08-17T04:43:10.296Z,32.15
2022-08-17T04:45:41.038Z,33.35
2022-08-17T04:48:35.625Z,31.17
2022-08-17T04:51:09.868Z,32.83
2022-08-17T04:53:39.328Z,34.17
2022-08-17T04:56:08.037Z,32.67
2022-08-17T04:58:45.306Z,34.03
2022-08-17T05:01:14.256Z,39.30
2022-08-17T05:03:43.103Z,38.00
2022-08-17T05:06:12.914Z,35.58
2022-08-17T05:08:41.682Z,31.08
2022-08-17T05:11:10.473Z,36.10
2022-08-17T05:13:38.884Z,36.65
2022-08-17T05:16:09.111Z,36.05
2022-08-17T05:18:38.963Z,36.50
2022-08-17T05:21:07.822Z,36.25
2022-08-17T05:23:43.137Z,30.85
2022-08-17T05:26:22.555Z,30.88
2022-08-17T05:28:57.239Z,32.55
2022-08-17T05:31:29.717Z,33.08
2022-08-17T05:33:58.225Z,35.88
2022-08-17T05:36:38.025Z,35.85
2022-08-17T05:39:15.842Z,32.55
2022-08-17T05:41:45.857Z,33.72
2022-08-17T05:44:14.554Z,31.88
2022-08-17T05:46:44.452Z,33.78
2022-08-17T05:49:13.979Z,32.13
2022-08-17T05:51:49.463Z,33.38
2022-08-17T05:54:31.222Z,38.30
2022-08-17T05:57:09.488Z,31.08
2022-08-17T05:59:42.553Z,33.53
2022-08-17T06:02:17.637Z,36.10
2022-08-17T06:04:52.757Z,36.47
2022-08-17T06:07:22.847Z,36.33
2022-08-17T06:09:56.900Z,33.88
2022-08-17T06:12:35.020Z,32.75
2022-08-17T06:15:10.768Z,39.05
2022-08-17T06:17:39.546Z,39.53
2022-08-17T06:20:11.082Z,34.72
2022-08-17T06:22:43.739Z,33.17
2022-08-17T06:25:18.076Z,32.97
2022-08-17T06:27:53.557Z,37.08
2022-08-17T06:30:24.981Z,35.13
2022-08-17T06:32:54.460Z,34.47
2022-08-17T06:35:31.791Z,30.15
2022-08-17T06:38:05.145Z,30.60
2022-08-17T06:40:45.889Z,30.40
2022-08-17T06:43:20.662Z,30.50
2022-08-17T06:45:52.155Z,34.67
2022-08-17T06:48:24.489Z,27.05
2022-08-17T06:50:55.313Z,31.10
2022-08-17T06:53:26.361Z,23.35
2022-08-17T06:55:58.112Z,27.17
2022-08-17T06:58:29.686Z,28.45
2022-08-17T07:01:01.763Z,26.55
2022-08-17T07:03:37.784Z,25.65
2022-08-17T07:06:09.043Z,28.15
2022-08-17T07:08:44.196Z,27.85
2022-08-17T07:11:16.471Z,25.85
2022-08-17T07:13:51.384Z,28.90
2022-08-17T07:16:22.143Z,27.13
2022-08-17T07:18:53.323Z,26.17
2022-08-17T07:21:38.678Z,25.70
2022-08-17T07:24:29.237Z,31.13
2022-08-17T07:27:10.800Z,26.38
2022-08-17T07:29:44.062Z,29.42
2022-08-17T07:32:13.642Z,33.08
2022-08-17T07:35:00.470Z,30.75
2022-08-17T07:37:29.281Z,30.63
2022-08-17T07:39:59.619Z,29.75
2022-08-17T07:43:02.150Z,32.03
2022-08-17T07:45:51.135Z,28.23
2022-08-17T07:48:21.677Z,29.42
2022-08-17T07:50:50.703Z,26.25
2022-08-17T07:53:20.154Z,29.52
2022-08-17T07:55:48.856Z,27.75
2022-08-17T07:58:20.239Z,26.48
2022-08-17T08:00:48.737Z,25.73
2022-08-17T08:03:23.711Z,24.63
2022-08-17T08:05:57.666Z,22.63
2022-08-17T08:08:31.074Z,24.60
2022-08-17T08:11:01.846Z,26.05
2022-08-17T08:13:32.380Z,23.15
2022-08-17T08:16:15.816Z,18.98
2022-08-17T08:18:55.782Z,21.83
2022-08-17T08:21:30.698Z,20.38
2022-08-17T08:24:01.401Z,17.58
2022-08-17T08:26:34.157Z,17.00
2022-08-17T08:29:10.128Z,21.67
2022-08-17T08:31:47.833Z,19.80
2022-08-17T08:34:53.184Z,18.92
2022-08-17T08:37:22.824Z,19.65
2022-08-17T08:40:01.599Z,17.33
2022-08-17T08:42:33.568Z,23.90
2022-08-17T08:45:07.645Z,27.13
2022-08-17T08:47:42.729Z,16.35
2022-08-17T08:50:37.039Z,16.60
2022-08-17T08:53:21.378Z,15.45
2022-08-17T08:55:53.635Z,16.77
2022-08-17T08:58:31.411Z,14.15
2022-08-17T09:01:16.983Z,17.77
2022-08-17T09:04:02.847Z,17.05
2022-08-17T09:06:47.609Z,12.75
2022-08-17T09:09:20.614Z,14.93
2022-08-17T09:12:01.338Z,15.73
2022-08-17T09:14:47.133Z,19.48
2022-08-17T09:17:19.603Z,17.52
2022-08-17T09:19:50.591Z,13.00
2022-08-17T09:22:26.173Z,14.18
2022-08-17T09:24:57.307Z,11.63
2022-08-17T09:27:29.116Z,14.55
2022-08-17T09:29:59.113Z,13.88
2022-08-17T09:32:33.066Z,24.17
2022-08-17T09:35:05.599Z,12.50
2022-08-17T09:37:39.634Z,12.10
2022-08-17T09:40:11.669Z,12.50
2022-08-17T09:42:44.790Z,11.38
2022-08-17T09:45:22.300Z,15.40
2022-08-17T09:47:53.815Z,16.77
2022-08-17T09:51:04.882Z,12.10
2022-08-17T09:53:13.248Z,19.58
2022-08-17T09:55:48.379Z,15.23
2022-08-17T09:58:20.136Z,12.88
2022-08-17T10:00:54.890Z,16.30
2022-08-17T10:03:36.666Z,14.43
2022-08-17T10:06:09.103Z,12.55
2022-08-17T10:08:41.269Z,13.68
2022-08-17T10:11:17.143Z,15.63
2022-08-17T10:13:59.486Z,18.63
2022-08-17T10:16:36.346Z,18.52
2022-08-17T10:19:13.793Z,54.45
2022-08-17T10:22:32.579Z,20.45
2022-08-17T10:25:22.524Z,14.45
2022-08-17T10:27:54.537Z,22.70
2022-08-17T10:30:24.148Z,15.88
2022-08-17T10:32:55.484Z,15.80
2022-08-17T10:35:34.099Z,19.00
2022-08-17T10:38:24.620Z,14.75
2022-08-17T10:40:56.072Z,20.80
2022-08-17T10:43:31.113Z,27.98
2022-08-17T10:46:17.105Z,14.38
2022-08-17T10:49:13.423Z,15.80
2022-08-17T10:51:43.608Z,18.58
2022-08-17T10:54:35.650Z,19.48
2022-08-17T10:57:05.174Z,18.70
2022-08-17T10:59:51.510Z,19.80
2022-08-17T11:02:26.015Z,26.55
2022-08-17T11:05:00.400Z,17.23
2022-08-17T11:07:41.165Z,24.23
2022-08-17T11:10:23.848Z,24.92
2022-08-17T11:12:55.450Z,19.40
2022-08-17T11:15:31.435Z,21.65
2022-08-17T11:18:07.653Z,16.90
2022-08-17T11:20:55.931Z,49.08
2022-08-17T11:23:39.186Z,15.95
2022-08-17T11:26:23.169Z,19.65
2022-08-17T11:28:54.415Z,12.27
2022-08-17T11:31:38.990Z,12.68
2022-08-17T11:34:09.694Z,17.60
2022-08-17T11:37:00.444Z,16.55
2022-08-17T11:39:38.531Z,18.90
2022-08-17T11:42:13.188Z,14.43
2022-08-17T11:44:47.637Z,14.88
2022-08-17T11:47:36.782Z,14.50
2022-08-17T11:50:31.915Z,12.70
2022-08-17T11:53:00.482Z,20.05
2022-08-17T11:55:47.594Z,13.50
2022-08-17T11:58:30.891Z,19.65
2022-08-17T12:01:02.089Z,15.57
2022-08-17T12:03:55.472Z,17.10
2022-08-17T12:06:42.288Z,13.23
2022-08-17T12:09:13.959Z,22.55
2022-08-17T12:11:58.698Z,11.95
2022-08-17T12:15:08.214Z,21.48
2022-08-17T12:17:40.193Z,13.98
2022-08-17T12:20:23.228Z,15.52
2022-08-17T12:22:57.630Z,21.15
2022-08-17T12:25:33.141Z,19.38
2022-08-17T12:28:06.786Z,16.35
2022-08-17T12:30:37.368Z,11.82
2022-08-17T12:33:13.353Z,16.88
2022-08-17T12:35:59.566Z,19.10
2022-08-17T12:38:32.991Z,18.48
2022-08-17T12:41:23.449Z,13.23
2022-08-17T12:44:01.533Z,14.18
2022-08-17T12:46:30.635Z,14.30
2022-08-17T12:49:13.933Z,16.00
2022-08-17T12:51:44.659Z,15.98
2022-08-17T12:54:22.993Z,12.20
2022-08-17T12:56:51.389Z,13.60
2022-08-17T12:59:29.981Z,12.60
2022-08-17T13:01:59.283Z,18.20
2022-08-17T13:04:29.737Z,14.80
2022-08-17T13:06:59.917Z,15.25
2022-08-17T13:09:35.615Z,14.80
2022-08-17T13:12:05.101Z,15.55
2022-08-17T13:14:34.146Z,33.20
2022-08-17T13:17:07.344Z,32.25
2022-08-17T13:19:45.874Z,14.98
2022-08-17T13:22:14.330Z,13.52
2022-08-17T13:24:53.145Z,10.95
2022-08-17T13:27:22.381Z,15.43
2022-08-17T13:29:53.531Z,17.42
2022-08-17T13:32:24.030Z,17.35
2022-08-17T13:35:11.912Z,11.68
2022-08-17T13:37:57.862Z,11.25
2022-08-17T13:40:34.481Z,12.65
2022-08-17T13:43:03.930Z,11.57
2022-08-17T13:45:39.173Z,14.63
2022-08-17T13:48:11.098Z,14.25
2022-08-17T13:50:45.135Z,13.38
2022-08-17T13:53:21.458Z,13.70
2022-08-17T13:55:51.778Z,13.82
2022-08-17T13:58:25.103Z,18.77
2022-08-17T14:00:53.553Z,15.20
2022-08-17T14:03:22.329Z,12.48
2022-08-17T14:05:52.716Z,13.68
2022-08-17T14:08:22.008Z,12.77
2022-08-17T14:10:58.265Z,15.50
2022-08-17T14:13:26.552Z,12.00
2022-08-17T14:15:56.731Z,12.85
2022-08-17T14:18:35.699Z,13.43
2022-08-17T14:21:15.517Z,16.10
2022-08-17T14:23:49.969Z,16.20
2022-08-17T14:26:23.213Z,38.95
2022-08-17T14:28:54.579Z,27.20
2022-08-17T14:31:25.139Z,52.08
2022-08-17T14:33:53.480Z,13.43
2022-08-17T14:36:23.223Z,13.18
2022-08-17T14:38:51.552Z,12.25
2022-08-17T14:41:22.126Z,11.77
2022-08-17T14:43:51.375Z,16.77
2022-08-17T14:46:19.673Z,10.13
2022-08-17T14:48:51.725Z,19.77
2022-08-17T14:51:27.549Z,9.68
2022-08-17T14:53:57.173Z,11.05
2022-08-17T14:56:25.653Z,10.93
2022-08-17T14:58:54.156Z,12.82
2022-08-17T15:01:24.514Z,84.43
2022-08-17T15:03:53.972Z,20.45
2022-08-17T15:06:22.465Z,17.30
2022-08-17T15:08:53.568Z,13.65
2022-08-17T15:11:21.895Z,12.43
2022-08-17T15:13:52.945Z,9.90
2022-08-17T15:16:22.637Z,12.00
2022-08-17T15:18:52.659Z,18.27
2022-08-17T15:21:20.990Z,11.95
2022-08-17T15:23:49.282Z,9.57
2022-08-17T15:26:22.855Z,9.02
2022-08-17T15:28:57.311Z,13.13
2022-08-17T15:31:31.728Z,13.45
2022-08-17T15:34:01.140Z,11.10
2022-08-17T15:36:29.560Z,9.65
2022-08-17T15:38:58.811Z,14.32
2022-08-17T15:41:29.401Z,10.00
2022-08-17T15:43:57.681Z,9.35
2022-08-17T15:46:26.982Z,10.20
2022-08-17T15:48:58.309Z,13.77
2022-08-17T15:51:27.735Z,12.40
2022-08-17T15:53:56.857Z,15.00
2022-08-17T15:56:26.612Z,9.57
2022-08-17T15:58:56.766Z,14.05
2022-08-17T16:02:24.770Z,12.02
2022-08-17T16:04:29.522Z,11.00
2022-08-17T16:06:59.821Z,18.27
2022-08-17T16:09:28.177Z,14.10
2022-08-17T16:11:56.767Z,14.43
2022-08-17T16:14:30.280Z,15.45
2022-08-17T16:17:02.234Z,13.27
2022-08-17T16:19:30.527Z,15.13
2022-08-17T16:21:58.807Z,16.27
2022-08-17T16:24:27.112Z,13.27
2022-08-17T16:26:55.987Z,14.25
2022-08-17T16:29:25.651Z,15.00
2022-08-17T16:31:54.066Z,14.55
2022-08-17T16:34:22.397Z,12.30
2022-08-17T16:36:56.134Z,15.20
2022-08-17T16:39:25.999Z,12.88
2022-08-17T16:41:54.508Z,12.27
2022-08-17T16:44:23.430Z,13.52
2022-08-17T16:46:53.454Z,11.88
2022-08-17T16:49:36.276Z,10.57
2022-08-17T16:52:06.724Z,11.85
2022-08-17T16:54:35.352Z,14.55
2022-08-17T16:57:05.111Z,11.10
2022-08-17T16:59:40.847Z,16.88
2022-08-17T17:02:16.307Z,14.80
2022-08-17T17:04:47.679Z,15.43
2022-08-17T17:07:36.119Z,12.85
2022-08-17T17:10:06.232Z,13.90
2022-08-17T17:13:04.014Z,14.38
2022-08-17T17:15:23.996Z,15.90
2022-08-17T17:17:53.841Z,10.32
2022-08-17T17:20:26.102Z,11.07
2022-08-17T17:22:58.827Z,10.35
2022-08-17T17:25:28.851Z,13.77
2022-08-17T17:28:01.839Z,10.55
2022-08-17T17:30:33.252Z,15.93
2022-08-17T17:33:05.395Z,13.48
2022-08-17T17:35:35.162Z,24.08
2022-08-17T17:38:06.273Z,13.93
2022-08-17T17:40:37.205Z,17.02
2022-08-17T17:43:34.821Z,14.23
2022-08-17T17:45:58.474Z,16.30
2022-08-17T17:48:38.913Z,11.75
2022-08-17T17:51:10.443Z,15.55
2022-08-17T17:53:45.710Z,14.50
2022-08-17T17:56:21.239Z,14.80
2022-08-17T17:59:11.219Z,13.45
2022-08-17T18:01:45.386Z,14.60
2022-08-17T18:04:23.016Z,12.95
2022-08-17T18:06:57.757Z,12.38
2022-08-17T18:09:33.805Z,15.60
2022-08-17T18:12:08.735Z,12.43
2022-08-17T18:14:47.473Z,14.02
2022-08-17T18:17:15.756Z,13.60
2022-08-17T18:19:48.353Z,14.20
2022-08-17T18:22:18.218Z,12.07
2022-08-17T18:24:48.016Z,15.13
2022-08-17T18:27:24.430Z,18.17
2022-08-17T18:29:53.902Z,14.75
2022-08-17T18:32:27.011Z,12.95
2022-08-17T18:34:57.824Z,11.40
2022-08-17T18:37:37.787Z,14.80
2022-08-17T18:40:24.547Z,15.35
2022-08-17T18:42:58.541Z,17.45
2022-08-17T18:45:33.417Z,17.02
2022-08-17T18:48:01.780Z,20.70
2022-08-17T18:50:36.967Z,15.07
2022-08-17T18:53:21.031Z,16.48
2022-08-17T18:56:15.134Z,18.60
2022-08-17T18:58:43.690Z,18.42
2022-08-17T19:01:19.479Z,19.75
2022-08-17T19:03:47.945Z,17.10
2022-08-17T19:06:27.357Z,14.98
2022-08-17T19:08:55.670Z,19.65
2022-08-17T19:11:26.865Z,18.80
2022-08-17T19:13:57.496Z,19.55
2022-08-17T19:16:29.294Z,18.33
2022-08-17T19:18:59.293Z,19.95
2022-08-17T19:21:33.857Z,19.33
2022-08-17T19:24:06.772Z,19.10
2022-08-17T19:26:54.010Z,17.75
2022-08-17T19:29:26.896Z,15.55
2022-08-17T19:31:56.256Z,20.17
2022-08-17T19:34:30.068Z,19.33
2022-08-17T19:37:06.884Z,17.75
2022-08-17T19:39:38.266Z,21.30
2022-08-17T19:42:11.680Z,21.42
2022-08-17T19:44:47.066Z,19.95
2022-08-17T19:47:36.220Z,19.42
2022-08-17T19:50:10.703Z,23.23
2022-08-17T19:52:46.481Z,16.85
2022-08-17T19:55:20.805Z,16.75
2022-08-17T19:57:52.775Z,14.32
2022-08-17T20:00:21.272Z,16.55
2022-08-17T20:02:52.893Z,17.73
2022-08-17T20:05:23.011Z,22.40
2022-08-17T20:07:55.780Z,15.98
2022-08-17T20:10:39.008Z,18.40
2022-08-17T20:13:09.887Z,16.77
2022-08-17T20:15:41.104Z,18.45
2022-08-17T20:18:13.583Z,17.48
2022-08-17T20:20:46.739Z,18.33
2022-08-17T20:23:24.285Z,19.20
2022-08-17T20:25:55.756Z,18.38
2022-08-17T20:28:25.053Z,18.05
2022-08-17T20:30:53.870Z,17.05
2022-08-17T20:33:26.348Z,16.70
2022-08-17T20:36:12.524Z,18.73
2022-08-17T20:38:44.261Z,19.65
2022-08-17T20:41:13.862Z,20.10
2022-08-17T20:44:03.105Z,17.25
2022-08-17T20:46:51.409Z,24.23
2022-08-17T20:49:26.035Z,16.63
2022-08-17T20:52:02.444Z,17.73
2022-08-17T20:54:46.068Z,20.90
2022-08-17T20:57:41.334Z,20.45
2022-08-17T21:00:18.253Z,17.90
2022-08-17T21:02:48.423Z,20.00
2022-08-17T21:05:34.845Z,21.90
2022-08-17T21:08:14.103Z,18.77
2022-08-17T21:10:43.838Z,16.70
2022-08-17T21:13:26.693Z,21.02
2022-08-17T21:16:00.076Z,19.40
2022-08-17T21:18:31.808Z,18.95
2022-08-17T21:21:07.217Z,19.85
2022-08-17T21:23:42.333Z,20.83
2022-08-17T21:26:18.397Z,23.00
2022-08-17T21:29:00.529Z,23.83
2022-08-17T21:31:34.432Z,20.80
2022-08-17T21:34:26.912Z,20.10
2022-08-17T21:36:56.831Z,19.80
2022-08-17T21:39:33.339Z,23.50
2022-08-17T21:42:01.919Z,22.92
2022-08-17T21:44:33.702Z,24.70
2022-08-17T21:47:16.584Z,25.98
2022-08-17T21:49:44.942Z,22.50
2022-08-17T21:52:14.879Z,21.83
2022-08-17T21:54:45.378Z,24.17
2022-08-17T21:57:17.664Z,24.15
2022-08-17T21:59:46.215Z,25.75
2022-08-17T22:02:20.883Z,26.52
2022-08-17T22:04:58.199Z,23.65
2022-08-17T22:07:36.185Z,23.98
2022-08-17T22:10:05.870Z,24.35
2022-08-17T22:12:34.248Z,25.13
2022-08-17T22:15:04.351Z,27.83
2022-08-17T22:17:35.933Z,27.20
2022-08-17T22:20:09.218Z,24.92
2022-08-17T22:22:59.872Z,27.35
2022-08-17T22:25:27.835Z,24.98
2022-08-17T22:27:57.482Z,28.20
2022-08-17T22:30:36.810Z,33.28
2022-08-17T22:33:19.964Z,35.03
2022-08-17T22:35:49.933Z,27.08
2022-08-17T22:38:30.996Z,30.55
2022-08-17T22:41:15.176Z,29.38
2022-08-17T22:43:44.772Z,35.65
2022-08-17T22:46:14.987Z,27.48
2022-08-17T22:48:48.641Z,31.38
2022-08-17T22:51:20.661Z,26.95
2022-08-17T22:54:07.700Z,30.45
2022-08-17T22:56:54.010Z,30.52
2022-08-17T22:59:37.287Z,32.17
2022-08-17T23:02:13.513Z,32.05
2022-08-17T23:04:43.262Z,34.55
2022-08-17T23:07:13.070Z,32.55
2022-08-17T23:09:41.401Z,33.22
2022-08-17T23:12:11.607Z,29.15
2022-08-17T23:14:42.450Z,35.40
2022-08-17T23:17:10.772Z,30.33
2022-08-17T23:19:39.061Z,28.52
2022-08-17T23:22:09.268Z,28.40
2022-08-17T23:24:42.204Z,32.03
2022-08-17T23:27:10.744Z,26.73
2022-08-17T23:29:42.153Z,29.35
2022-08-17T23:32:12.235Z,27.45
2022-08-17T23:34:40.999Z,30.38
2022-08-17T23:37:10.755Z,29.73
2022-08-17T23:39:39.445Z,30.05
2022-08-17T23:42:10.600Z,33.38
2022-08-17T23:44:39.892Z,33.78
2022-08-17T23:47:08.989Z,30.27
2022-08-17T23:49:37.504Z,32.65
2022-08-17T23:52:07.071Z,34.95
2022-08-17T23:54:37.502Z,38.40
2022-08-17T23:57:06.032Z,36.53
2022-08-17T23:59:37.259Z,36.28
